Terminal Aerodrome Forecast
Issued by NWS

Home | Current Version | Previous Version | Graphics & Text | Print | Product List | Glossary On
Versions: 1 2 3 4 5 6 7 8 9 10 11 12 13 14 15 16 17 18 19 20
000
FTUS43 KLSX 270924 AAA
TAFSUS
TAF AMD
KSUS 270924Z 2709/2806 10009KT 6SM BR OVC006
     FM271100 23012G20KT 5SM -RA VCTS OVC006CB
     FM271300 VRB05KT 6SM BR OVC008
     FM271500 16013G20KT P6SM BKN015
     FM271900 19014G20KT 4SM TSRA OVC040CB
     FM280000 20005KT P6SM SCT110=

USA.gov is the U.S. government's official web portal to all federal, state and local government web resources and services.